createdAt,value
2017-08-25T00:00:32.542Z,17.80
2017-08-25T00:02:59.624Z,17.80
2017-08-25T00:05:26.967Z,17.70
2017-08-25T00:07:54.657Z,17.00
2017-08-25T00:10:22.064Z,17.00
2017-08-25T00:12:49.021Z,16.80
2017-08-25T00:15:15.926Z,16.80
2017-08-25T00:17:42.847Z,16.70
2017-08-25T00:20:09.919Z,16.80
2017-08-25T00:22:36.900Z,17.00
2017-08-25T00:25:03.807Z,16.80
2017-08-25T00:27:31.846Z,16.60
2017-08-25T00:29:59.675Z,16.60
2017-08-25T00:32:26.672Z,16.50
2017-08-25T00:34:53.679Z,16.60
2017-08-25T00:37:21.371Z,16.60
2017-08-25T00:39:48.385Z,16.60
2017-08-25T00:42:15.350Z,16.60
2017-08-25T00:44:42.234Z,16.80
2017-08-25T00:47:09.240Z,16.90
2017-08-25T00:49:36.130Z,17.10
2017-08-25T00:52:03.036Z,17.10
2017-08-25T00:54:30.806Z,16.90
2017-08-25T00:56:58.433Z,17.00
2017-08-25T00:59:25.359Z,17.00
2017-08-25T01:01:52.322Z,17.20
2017-08-25T01:04:19.208Z,17.30
2017-08-25T01:06:46.151Z,17.40
2017-08-25T01:09:13.125Z,17.50
2017-08-25T01:11:40.090Z,17.50
2017-08-25T01:14:06.976Z,17.60
2017-08-25T01:16:33.950Z,17.60
2017-08-25T01:19:00.851Z,17.70
2017-08-25T01:21:27.855Z,17.50
2017-08-25T01:23:54.863Z,17.60
2017-08-25T01:26:22.012Z,17.60
2017-08-25T01:28:48.957Z,17.70
2017-08-25T01:31:16.656Z,17.60
2017-08-25T01:33:43.721Z,17.60
2017-08-25T01:36:10.710Z,17.60
2017-08-25T01:38:37.762Z,17.60
2017-08-25T01:41:04.685Z,17.70
2017-08-25T01:43:31.641Z,17.70
2017-08-25T01:45:58.739Z,17.70
2017-08-25T01:48:25.709Z,17.40
2017-08-25T01:50:52.672Z,17.50
2017-08-25T01:53:19.719Z,17.50
2017-08-25T01:55:46.780Z,17.50
2017-08-25T01:58:13.733Z,17.50
2017-08-25T02:00:40.790Z,17.60
2017-08-25T02:03:07.731Z,17.70
2017-08-25T02:05:34.853Z,17.70
2017-08-25T02:08:01.854Z,17.80
2017-08-25T02:10:28.813Z,17.90
2017-08-25T02:12:55.779Z,18.00
2017-08-25T02:15:22.632Z,18.00
2017-08-25T02:17:49.537Z,18.10
2017-08-25T02:20:17.251Z,18.20
2017-08-25T02:22:44.163Z,18.20
2017-08-25T02:25:11.034Z,18.20
2017-08-25T02:27:38.012Z,18.30
2017-08-25T02:30:05.053Z,18.30
2017-08-25T02:32:32.035Z,18.30
2017-08-25T02:34:58.926Z,18.30
2017-08-25T02:37:25.805Z,18.40
2017-08-25T02:39:52.735Z,18.40
2017-08-25T02:42:19.604Z,18.50
2017-08-25T02:44:47.326Z,18.50
2017-08-25T02:47:14.275Z,18.50
2017-08-25T02:49:41.156Z,18.50
2017-08-25T02:52:08.785Z,18.40
2017-08-25T02:54:35.742Z,18.40
2017-08-25T02:57:02.683Z,18.50
2017-08-25T02:59:29.723Z,18.50
2017-08-25T03:01:56.659Z,18.50
2017-08-25T03:04:23.527Z,18.50
2017-08-25T03:06:50.412Z,18.50
2017-08-25T03:09:17.332Z,18.40
2017-08-25T03:11:44.305Z,18.30
2017-08-25T03:14:11.172Z,18.30
2017-08-25T03:16:38.121Z,18.30
2017-08-25T03:19:04.996Z,18.40
2017-08-25T03:21:31.899Z,18.40
2017-08-25T03:23:58.860Z,18.40
2017-08-25T03:26:25.744Z,18.40
2017-08-25T03:28:52.705Z,18.40
2017-08-25T03:31:19.614Z,18.30
2017-08-25T03:33:46.568Z,18.40
2017-08-25T03:36:13.501Z,18.10
2017-08-25T03:38:41.217Z,18.00
2017-08-25T03:41:08.991Z,18.20
2017-08-25T03:43:36.616Z,18.20
2017-08-25T03:46:03.574Z,18.20
2017-08-25T03:48:30.456Z,18.20
2017-08-25T03:50:57.333Z,18.30
2017-08-25T03:53:24.327Z,18.40
2017-08-25T03:55:51.262Z,18.40
2017-08-25T03:58:18.156Z,18.40
2017-08-25T04:00:45.162Z,18.50
2017-08-25T04:03:12.885Z,18.50
2017-08-25T04:05:39.780Z,18.50
2017-08-25T04:08:07.407Z,18.20
2017-08-25T04:10:34.377Z,18.20
2017-08-25T04:13:02.007Z,17.80
2017-08-25T04:15:28.902Z,17.80
2017-08-25T04:17:55.824Z,17.60
2017-08-25T04:20:23.273Z,17.60
2017-08-25T04:22:50.230Z,17.40
2017-08-25T04:25:18.009Z,17.70
2017-08-25T04:27:45.076Z,17.70
2017-08-25T04:30:11.973Z,17.70
2017-08-25T04:32:38.883Z,17.90
2017-08-25T04:35:19.995Z,18.10
2017-08-25T04:37:50.408Z,18.20
2017-08-25T04:40:18.685Z,18.20
2017-08-25T04:42:46.945Z,18.20
2017-08-25T04:45:21.961Z,18.30
2017-08-25T04:47:49.564Z,18.20
2017-08-25T04:50:17.594Z,18.40
2017-08-25T04:52:44.479Z,18.10
2017-08-25T04:55:11.416Z,17.90
2017-08-25T04:57:38.301Z,18.00
2017-08-25T05:00:05.273Z,18.00
2017-08-25T05:02:32.352Z,18.00
2017-08-25T05:04:59.332Z,18.10
2017-08-25T05:07:28.096Z,18.30
2017-08-25T05:09:56.051Z,18.40
2017-08-25T05:12:23.791Z,18.50
2017-08-25T05:14:50.679Z,18.50
2017-08-25T05:17:17.639Z,18.60
2017-08-25T05:19:44.517Z,18.70
2017-08-25T05:22:12.201Z,18.70
2017-08-25T05:24:39.140Z,18.70
2017-08-25T05:27:06.051Z,18.80
2017-08-25T05:29:32.947Z,18.70
2017-08-25T05:32:00.134Z,18.70
2017-08-25T05:34:27.037Z,18.70
2017-08-25T05:36:53.938Z,18.80
2017-08-25T05:39:20.956Z,18.80
2017-08-25T05:41:47.830Z,18.90
2017-08-25T05:44:14.711Z,18.90
2017-08-25T05:46:41.655Z,19.00
2017-08-25T05:49:08.600Z,19.00
2017-08-25T05:51:35.586Z,19.00
2017-08-25T05:54:02.448Z,19.00
2017-08-25T05:56:29.396Z,19.00
2017-08-25T05:58:56.275Z,19.00
2017-08-25T06:01:23.894Z,19.20
2017-08-25T06:03:50.844Z,19.20
2017-08-25T06:06:17.716Z,18.90
2017-08-25T06:08:45.443Z,19.10
2017-08-25T06:11:12.345Z,19.10
2017-08-25T06:13:39.940Z,19.50
2017-08-25T06:16:06.881Z,19.50
2017-08-25T06:18:33.752Z,19.80
2017-08-25T06:21:00.680Z,19.90
2017-08-25T06:23:27.538Z,20.00
2017-08-25T06:25:54.501Z,19.80
2017-08-25T06:28:21.411Z,19.90
2017-08-25T06:30:48.328Z,20.00
2017-08-25T06:33:28.244Z,19.80
2017-08-25T06:35:56.557Z,20.10
2017-08-25T06:38:23.515Z,20.10
2017-08-25T06:40:50.508Z,20.30
2017-08-25T06:43:31.520Z,20.40
2017-08-25T06:45:59.183Z,20.30
2017-08-25T06:48:26.915Z,20.30
2017-08-25T06:50:55.345Z,20.30
2017-08-25T06:53:22.365Z,20.70
2017-08-25T06:55:50.004Z,21.10
2017-08-25T06:58:16.959Z,21.00
2017-08-25T07:00:43.958Z,21.40
2017-08-25T07:03:10.917Z,21.70
2017-08-25T07:05:37.954Z,21.90
2017-08-25T07:08:04.870Z,21.90
2017-08-25T07:10:32.571Z,21.80
2017-08-25T07:12:59.430Z,21.80
2017-08-25T07:15:26.381Z,22.00
2017-08-25T07:17:53.333Z,22.60
2017-08-25T07:20:21.005Z,22.60
2017-08-25T07:22:47.913Z,22.40
2017-08-25T07:25:14.883Z,22.60
2017-08-25T07:27:41.752Z,22.60
2017-08-25T07:30:08.694Z,22.70
2017-08-25T07:32:35.666Z,22.70
2017-08-25T07:35:03.257Z,22.80
2017-08-25T07:37:30.221Z,22.80
2017-08-25T07:39:57.322Z,23.20
2017-08-25T07:42:24.336Z,23.40
2017-08-25T07:44:51.229Z,23.30
2017-08-25T07:47:18.181Z,23.60
2017-08-25T07:49:45.108Z,23.70
2017-08-25T07:52:12.087Z,23.70
2017-08-25T07:54:39.048Z,23.60
2017-08-25T07:57:06.068Z,24.40
2017-08-25T07:59:33.013Z,25.00
2017-08-25T08:01:59.987Z,26.00
2017-08-25T08:04:26.869Z,26.60
2017-08-25T08:06:53.875Z,25.80
2017-08-25T08:09:20.790Z,25.50
2017-08-25T08:11:47.684Z,25.80
2017-08-25T08:14:14.668Z,26.20
2017-08-25T08:16:41.615Z,26.70
2017-08-25T08:19:09.277Z,27.10
2017-08-25T08:21:36.280Z,27.00
2017-08-25T08:24:03.147Z,26.50
2017-08-25T08:26:30.100Z,25.90
2017-08-25T08:28:57.068Z,26.40
2017-08-25T08:31:24.823Z,28.70
2017-08-25T08:33:52.478Z,29.30
2017-08-25T08:36:25.269Z,29.20
2017-08-25T08:38:52.159Z,29.70
2017-08-25T08:41:19.050Z,29.30
2017-08-25T08:43:46.001Z,28.50
2017-08-25T08:46:13.712Z,29.20
2017-08-25T08:48:40.669Z,29.20
2017-08-25T08:51:07.635Z,30.30
2017-08-25T08:53:34.621Z,31.00
2017-08-25T08:56:01.516Z,31.80
2017-08-25T08:58:28.415Z,31.90
2017-08-25T09:00:56.126Z,29.80
2017-08-25T09:03:23.009Z,29.80
2017-08-25T09:06:09.515Z,29.60
2017-08-25T09:08:37.145Z,29.20
2017-08-25T09:11:04.147Z,29.30
2017-08-25T09:13:31.063Z,29.20
2017-08-25T09:15:57.949Z,28.60
2017-08-25T09:18:24.932Z,29.60
2017-08-25T09:20:51.864Z,31.30
2017-08-25T09:23:18.820Z,32.60
2017-08-25T09:25:45.921Z,31.80
2017-08-25T09:28:12.913Z,31.70
2017-08-25T09:30:39.836Z,31.10
2017-08-25T09:33:06.795Z,30.60
2017-08-25T09:35:33.751Z,29.60
2017-08-25T09:38:00.716Z,29.30
2017-08-25T09:40:27.678Z,29.40
2017-08-25T09:42:54.625Z,29.20
2017-08-25T09:45:21.583Z,28.90
2017-08-25T09:47:49.208Z,28.40
2017-08-25T09:50:16.169Z,28.30
2017-08-25T09:52:43.055Z,28.60
2017-08-25T09:55:09.985Z,28.60
2017-08-25T09:57:37.728Z,29.50
2017-08-25T10:00:04.704Z,29.50
2017-08-25T10:02:31.579Z,29.80
2017-08-25T10:04:58.565Z,30.00
2017-08-25T10:07:25.437Z,30.00
2017-08-25T10:09:52.368Z,30.00
2017-08-25T10:12:19.252Z,30.50
2017-08-25T10:14:46.230Z,30.50
2017-08-25T10:17:13.129Z,31.00
2017-08-25T10:19:40.017Z,31.20
2017-08-25T10:22:06.994Z,31.50
2017-08-25T10:24:34.711Z,31.30
2017-08-25T10:27:01.700Z,31.30
2017-08-25T10:29:28.604Z,30.70
2017-08-25T10:31:55.577Z,31.00
2017-08-25T10:34:34.351Z,30.90
2017-08-25T10:37:13.372Z,31.10
2017-08-25T10:39:53.347Z,30.60
2017-08-25T10:42:32.509Z,30.70
2017-08-25T10:45:07.715Z,30.70
2017-08-25T10:47:34.658Z,31.10
2017-08-25T10:50:01.604Z,31.40
2017-08-25T10:52:28.582Z,31.40
2017-08-25T10:54:55.495Z,31.20
2017-08-25T10:57:22.552Z,31.00
2017-08-25T10:59:49.492Z,31.00
2017-08-25T11:02:16.405Z,30.80
2017-08-25T11:04:44.129Z,30.90
2017-08-25T11:07:11.005Z,30.90
2017-08-25T11:09:37.900Z,30.80
2017-08-25T11:12:04.862Z,31.10
2017-08-25T11:14:31.780Z,30.80
2017-08-25T11:16:58.831Z,30.60
2017-08-25T11:19:26.075Z,30.80
2017-08-25T11:21:53.062Z,30.50
2017-08-25T11:24:19.940Z,30.60
2017-08-25T11:26:46.936Z,30.90
2017-08-25T11:29:13.904Z,30.90
2017-08-25T11:31:40.821Z,30.90
2017-08-25T11:34:11.565Z,30.80
2017-08-25T11:36:43.249Z,30.80
2017-08-25T11:39:11.314Z,30.90
2017-08-25T11:41:38.313Z,30.80
2017-08-25T11:44:09.937Z,30.20
2017-08-25T11:46:36.912Z,30.10
2017-08-25T11:49:13.537Z,30.50
2017-08-25T11:51:41.145Z,30.40
2017-08-25T11:54:08.053Z,30.70
2017-08-25T11:56:38.066Z,30.30
2017-08-25T11:59:09.859Z,30.90
2017-08-25T12:01:37.361Z,30.50
2017-08-25T12:04:05.443Z,31.20
2017-08-25T12:06:32.478Z,31.10
2017-08-25T12:08:59.586Z,31.10
2017-08-25T12:11:27.312Z,30.50
2017-08-25T12:13:54.270Z,30.50
2017-08-25T12:16:21.238Z,30.80
2017-08-25T12:18:48.188Z,30.40
2017-08-25T12:21:15.912Z,30.50
2017-08-25T12:23:42.777Z,30.40
2017-08-25T12:26:09.876Z,29.80
2017-08-25T12:28:36.764Z,30.70
2017-08-25T12:31:03.897Z,30.90
2017-08-25T12:33:30.892Z,31.10
2017-08-25T12:35:58.600Z,31.80
2017-08-25T12:38:25.534Z,31.80
2017-08-25T12:41:07.075Z,31.80
2017-08-25T12:43:34.628Z,31.60
2017-08-25T12:46:01.745Z,31.70
2017-08-25T12:48:28.637Z,31.10
2017-08-25T12:50:55.638Z,31.20
2017-08-25T12:53:22.544Z,31.40
2017-08-25T12:55:49.798Z,30.30
2017-08-25T12:58:17.932Z,30.80
2017-08-25T13:00:44.838Z,30.80
2017-08-25T13:03:24.392Z,30.70
2017-08-25T13:05:57.535Z,30.80
2017-08-25T13:08:38.654Z,30.80
2017-08-25T13:11:21.152Z,30.40
2017-08-25T13:14:00.647Z,30.30
2017-08-25T13:16:28.265Z,29.80
2017-08-25T13:18:55.339Z,29.50
2017-08-25T13:21:22.237Z,29.40
2017-08-25T13:23:49.868Z,29.30
2017-08-25T13:26:16.841Z,29.30
2017-08-25T13:28:44.565Z,30.00
2017-08-25T13:31:11.519Z,30.00
2017-08-25T13:33:38.419Z,30.40
2017-08-25T13:36:05.411Z,30.50
2017-08-25T13:38:32.453Z,30.60
2017-08-25T13:40:59.368Z,30.60
2017-08-25T13:43:26.407Z,30.70
2017-08-25T13:45:53.582Z,30.80
2017-08-25T13:48:20.482Z,30.70
2017-08-25T13:50:48.222Z,31.10
2017-08-25T13:53:15.145Z,31.10
2017-08-25T13:55:42.154Z,30.80
2017-08-25T13:58:09.099Z,30.70
2017-08-25T14:00:36.758Z,30.80
2017-08-25T14:03:03.942Z,30.70
2017-08-25T14:05:30.839Z,30.80
2017-08-25T14:07:57.801Z,30.50
2017-08-25T14:10:25.572Z,30.00
2017-08-25T14:12:52.560Z,30.00
2017-08-25T14:15:19.482Z,29.40
2017-08-25T14:17:46.381Z,29.70
2017-08-25T14:20:14.315Z,29.50
2017-08-25T14:22:41.188Z,29.50
2017-08-25T14:25:08.100Z,29.80
2017-08-25T14:27:35.060Z,29.80
2017-08-25T14:30:01.935Z,29.70
2017-08-25T14:32:28.893Z,29.80
2017-08-25T14:34:55.827Z,29.80
2017-08-25T14:37:22.816Z,29.80
2017-08-25T14:39:49.782Z,29.60
2017-08-25T14:42:16.704Z,29.50
2017-08-25T14:44:43.625Z,29.60
2017-08-25T14:47:11.434Z,29.80
2017-08-25T14:49:38.333Z,29.80
2017-08-25T14:52:05.285Z,30.00
2017-08-25T14:54:32.953Z,29.70
2017-08-25T14:57:00.584Z,29.90
2017-08-25T14:59:28.012Z,29.90
2017-08-25T15:01:54.937Z,30.10
2017-08-25T15:04:21.876Z,30.00
2017-08-25T15:06:48.824Z,30.10
2017-08-25T15:09:15.692Z,29.80
2017-08-25T15:11:42.608Z,29.60
2017-08-25T15:14:09.726Z,29.70
2017-08-25T15:16:36.644Z,29.30
2017-08-25T15:19:03.637Z,29.60
2017-08-25T15:21:31.279Z,29.60
2017-08-25T15:23:58.260Z,29.70
2017-08-25T15:26:25.986Z,29.10
2017-08-25T15:28:52.929Z,29.10
2017-08-25T15:31:19.824Z,29.30
2017-08-25T15:33:46.860Z,29.00
2017-08-25T15:36:14.607Z,29.20
2017-08-25T15:38:41.501Z,29.20
2017-08-25T15:41:08.518Z,29.30
2017-08-25T15:43:35.388Z,29.30
2017-08-25T15:46:02.368Z,29.40
2017-08-25T15:48:29.298Z,29.40
2017-08-25T15:50:56.225Z,29.40
2017-08-25T15:53:23.208Z,29.50
2017-08-25T15:55:50.208Z,29.60
2017-08-25T15:58:17.172Z,29.30
2017-08-25T16:00:44.148Z,29.10
2017-08-25T16:03:11.052Z,28.70
2017-08-25T16:05:38.036Z,28.40
2017-08-25T16:08:04.919Z,28.20
2017-08-25T16:10:32.936Z,28.10
2017-08-25T16:12:59.865Z,28.10
2017-08-25T16:15:27.079Z,28.10
2017-08-25T16:17:54.076Z,28.10
2017-08-25T16:20:20.994Z,27.90
2017-08-25T16:22:48.698Z,27.90
2017-08-25T16:25:15.618Z,27.90
2017-08-25T16:27:42.674Z,27.90
2017-08-25T16:30:09.579Z,27.90
2017-08-25T16:32:36.543Z,27.90
2017-08-25T16:35:04.219Z,27.60
2017-08-25T16:37:31.113Z,27.60
2017-08-25T16:39:58.075Z,27.50
2017-08-25T16:42:24.955Z,27.40
2017-08-25T16:44:51.839Z,27.10
2017-08-25T16:47:18.791Z,26.80
2017-08-25T16:49:45.699Z,26.30
2017-08-25T16:52:12.692Z,25.50
2017-08-25T16:54:39.584Z,25.00
2017-08-25T16:57:06.451Z,24.70
2017-08-25T16:59:33.398Z,24.40
2017-08-25T17:02:00.373Z,24.30
2017-08-25T17:04:27.416Z,24.10
2017-08-25T17:06:54.339Z,23.90
2017-08-25T17:09:21.268Z,23.80
2017-08-25T17:11:48.220Z,23.80
2017-08-25T17:14:15.138Z,23.70
2017-08-25T17:16:42.899Z,23.50
2017-08-25T17:19:10.532Z,23.30
2017-08-25T17:21:37.665Z,23.30
2017-08-25T17:24:04.604Z,23.30
2017-08-25T17:26:31.554Z,23.30
2017-08-25T17:28:58.424Z,23.30
2017-08-25T17:31:25.311Z,23.30
2017-08-25T17:33:52.706Z,23.20
2017-08-25T17:36:19.640Z,23.20
2017-08-25T17:38:46.678Z,23.20
2017-08-25T17:41:13.644Z,23.10
2017-08-25T17:43:40.519Z,23.10
2017-08-25T17:46:07.480Z,23.00
2017-08-25T17:48:35.116Z,22.60
2017-08-25T17:51:02.109Z,22.60
2017-08-25T17:53:28.996Z,22.50
2017-08-25T17:55:55.876Z,22.50
2017-08-25T17:58:23.505Z,22.10
2017-08-25T18:00:50.562Z,21.50
2017-08-25T18:03:17.493Z,21.10
2017-08-25T18:05:44.472Z,20.90
2017-08-25T18:08:11.355Z,21.10
2017-08-25T18:10:38.355Z,21.10
2017-08-25T18:13:05.274Z,20.90
2017-08-25T18:15:32.264Z,20.80
2017-08-25T18:17:59.138Z,20.80
2017-08-25T18:20:26.048Z,21.00
2017-08-25T18:22:52.955Z,20.50
2017-08-25T18:25:19.940Z,20.50
2017-08-25T18:27:46.801Z,20.40
2017-08-25T18:30:14.481Z,20.90
2017-08-25T18:32:41.457Z,20.90
2017-08-25T18:35:08.457Z,21.20
2017-08-25T18:37:36.112Z,21.60
2017-08-25T18:40:02.999Z,21.60
2017-08-25T18:42:29.960Z,21.70
2017-08-25T18:44:56.825Z,21.60
2017-08-25T18:47:23.785Z,21.70
2017-08-25T18:49:50.731Z,21.50
2017-08-25T18:52:17.685Z,21.50
2017-08-25T18:54:44.634Z,21.50
2017-08-25T18:57:11.594Z,21.60
2017-08-25T18:59:39.360Z,21.30
2017-08-25T19:02:06.242Z,21.30
2017-08-25T19:04:33.135Z,21.40
2017-08-25T19:07:00.096Z,21.40
2017-08-25T19:09:27.776Z,21.50
2017-08-25T19:11:54.809Z,21.50
2017-08-25T19:14:21.835Z,21.60
2017-08-25T19:16:48.825Z,21.70
2017-08-25T19:19:15.728Z,21.60
2017-08-25T19:21:42.602Z,21.50
2017-08-25T19:24:09.554Z,21.70
2017-08-25T19:26:36.469Z,21.70
2017-08-25T19:29:03.409Z,21.70
2017-08-25T19:31:31.065Z,21.60
2017-08-25T19:33:58.009Z,21.60
2017-08-25T19:36:24.982Z,21.60
2017-08-25T19:38:54.186Z,21.50
2017-08-25T19:41:21.153Z,21.50
2017-08-25T19:43:48.085Z,21.50
2017-08-25T19:46:14.965Z,21.50
2017-08-25T19:48:41.924Z,21.60
2017-08-25T19:51:08.807Z,21.40
2017-08-25T19:53:36.505Z,21.40
2017-08-25T19:56:03.446Z,21.40
2017-08-25T19:58:30.436Z,21.40
2017-08-25T20:00:57.292Z,21.40
2017-08-25T20:03:24.269Z,21.40
2017-08-25T20:05:51.245Z,21.30
2017-08-25T20:08:18.116Z,21.00
2017-08-25T20:10:45.102Z,21.00
2017-08-25T20:13:14.682Z,21.10
2017-08-25T20:15:45.951Z,21.10
2017-08-25T20:18:13.968Z,21.10
2017-08-25T20:20:41.534Z,21.20
2017-08-25T20:23:08.486Z,21.20
2017-08-25T20:25:35.344Z,21.20
2017-08-25T20:28:02.519Z,21.30
2017-08-25T20:30:30.310Z,21.40
2017-08-25T20:32:57.192Z,21.40
2017-08-25T20:35:24.140Z,21.40
2017-08-25T20:37:51.040Z,21.40
2017-08-25T20:40:18.934Z,21.30
2017-08-25T20:42:45.850Z,21.20
2017-08-25T20:45:12.860Z,21.10
2017-08-25T20:47:39.748Z,21.00
2017-08-25T20:50:07.391Z,21.20
2017-08-25T20:52:34.418Z,21.10
2017-08-25T20:55:01.288Z,21.10
2017-08-25T20:57:28.265Z,21.20
2017-08-25T20:59:55.125Z,21.20
2017-08-25T21:02:22.000Z,21.30
2017-08-25T21:04:48.961Z,21.40
2017-08-25T21:07:15.838Z,21.40
2017-08-25T21:09:43.539Z,21.20
2017-08-25T21:12:10.419Z,21.20
2017-08-25T21:14:37.293Z,21.10
2017-08-25T21:17:04.251Z,20.70
2017-08-25T21:19:31.181Z,20.80
2017-08-25T21:21:58.776Z,20.80
2017-08-25T21:24:25.735Z,20.80
2017-08-25T21:26:52.704Z,20.60
2017-08-25T21:29:19.564Z,20.50
2017-08-25T21:31:46.529Z,20.50
2017-08-25T21:34:14.216Z,20.50
2017-08-25T21:36:41.115Z,20.50
2017-08-25T21:39:08.115Z,20.60
2017-08-25T21:41:34.991Z,20.50
2017-08-25T21:44:01.852Z,20.50
2017-08-25T21:46:28.797Z,20.60
2017-08-25T21:48:55.675Z,20.70
2017-08-25T21:51:22.653Z,20.70
2017-08-25T21:53:50.604Z,20.60
2017-08-25T21:56:17.484Z,20.50
2017-08-25T21:58:44.457Z,20.30
2017-08-25T22:01:11.428Z,20.30
2017-08-25T22:03:38.325Z,19.90
2017-08-25T22:06:05.221Z,19.90
2017-08-25T22:08:32.164Z,19.70
2017-08-25T22:11:10.753Z,19.80
2017-08-25T22:13:39.031Z,20.10
2017-08-25T22:16:06.033Z,20.10
2017-08-25T22:18:32.948Z,20.20
2017-08-25T22:21:00.582Z,20.50
2017-08-25T22:23:27.630Z,20.50
2017-08-25T22:25:54.564Z,20.60
2017-08-25T22:28:21.456Z,20.60
2017-08-25T22:30:48.384Z,20.70
2017-08-25T22:33:16.110Z,20.50
2017-08-25T22:35:43.164Z,20.50
2017-08-25T22:38:10.049Z,20.40
2017-08-25T22:40:37.836Z,20.30
2017-08-25T22:43:04.721Z,20.30
2017-08-25T22:45:31.763Z,20.40
2017-08-25T22:47:58.741Z,20.50
2017-08-25T22:50:26.458Z,20.30
2017-08-25T22:52:55.243Z,20.20
2017-08-25T22:55:23.010Z,20.20
2017-08-25T22:57:54.067Z,20.20
2017-08-25T23:00:21.001Z,20.20
2017-08-25T23:02:58.595Z,20.20
2017-08-25T23:05:26.901Z,20.20
2017-08-25T23:07:53.863Z,20.30
2017-08-25T23:10:27.535Z,20.40
2017-08-25T23:12:54.487Z,20.50
2017-08-25T23:15:21.351Z,20.40
2017-08-25T23:17:48.290Z,20.50
2017-08-25T23:20:15.254Z,20.50
2017-08-25T23:22:42.131Z,20.50
2017-08-25T23:25:08.998Z,20.50
2017-08-25T23:27:35.951Z,20.60
2017-08-25T23:30:04.529Z,20.60
2017-08-25T23:32:31.444Z,20.50
2017-08-25T23:34:58.389Z,20.60
2017-08-25T23:37:26.161Z,20.60
2017-08-25T23:42:38.306Z,20.50
2017-08-25T23:45:06.827Z,20.30
2017-08-25T23:47:39.726Z,20.30
2017-08-25T23:50:19.812Z,20.30
2017-08-25T23:52:47.483Z,20.10
2017-08-25T23:55:16.924Z,20.00
2017-08-25T23:57:43.871Z,20.00
